sensor_id;sensor_type;location;lat;lon;timestamp;temperature;humidity
21019;DHT22;10667;51.056;3.732;2024-01-30T00:01:58;12.30;99.90
21019;DHT22;10667;51.056;3.732;2024-01-30T00:04:24;12.30;99.90
21019;DHT22;10667;51.056;3.732;2024-01-30T00:06:51;12.30;99.90
21019;DHT22;10667;51.056;3.732;2024-01-30T00:09:18;12.40;99.90
21019;DHT22;10667;51.056;3.732;2024-01-30T00:11:43;12.40;99.90
21019;DHT22;10667;51.056;3.732;2024-01-30T00:14:09;12.50;99.90
21019;DHT22;10667;51.056;3.732;2024-01-30T00:16:35;12.50;99.90
21019;DHT22;10667;51.056;3.732;2024-01-30T00:19:00;12.50;99.90
21019;DHT22;10667;51.056;3.732;2024-01-30T00:21:27;12.50;99.90
21019;DHT22;10667;51.056;3.732;2024-01-30T00:23:53;12.50;99.90
21019;DHT22;10667;51.056;3.732;2024-01-30T00:26:19;12.60;99.90
21019;DHT22;10667;51.056;3.732;2024-01-30T00:28:44;12.60;99.90
21019;DHT22;10667;51.056;3.732;2024-01-30T00:31:10;12.50;99.90
21019;DHT22;10667;51.056;3.732;2024-01-30T00:33:40;12.60;99.90
21019;DHT22;10667;51.056;3.732;2024-01-30T00:36:08;12.60;99.90
21019;DHT22;10667;51.056;3.732;2024-01-30T00:38:34;12.60;99.90
21019;DHT22;10667;51.056;3.732;2024-01-30T00:41:00;12.60;99.90
21019;DHT22;10667;51.056;3.732;2024-01-30T00:43:27;12.60;99.90
21019;DHT22;10667;51.056;3.732;2024-01-30T00:45:53;12.60;99.90
21019;DHT22;10667;51.056;3.732;2024-01-30T00:48:20;12.50;99.90
21019;DHT22;10667;51.056;3.732;2024-01-30T00:50:46;12.50;99.90
21019;DHT22;10667;51.056;3.732;2024-01-30T00:53:12;12.50;99.90
21019;DHT22;10667;51.056;3.732;2024-01-30T00:55:38;12.40;99.90
21019;DHT22;10667;51.056;3.732;2024-01-30T00:58:04;12.40;99.90
21019;DHT22;10667;51.056;3.732;2024-01-30T01:00:30;12.40;99.90
21019;DHT22;10667;51.056;3.732;2024-01-30T01:03:00;12.40;99.90
21019;DHT22;10667;51.056;3.732;2024-01-30T01:05:26;12.50;99.90
21019;DHT22;10667;51.056;3.732;2024-01-30T01:07:51;12.50;99.90
21019;DHT22;10667;51.056;3.732;2024-01-30T01:10:17;12.30;99.90
21019;DHT22;10667;51.056;3.732;2024-01-30T01:12:47;12.30;99.90
21019;DHT22;10667;51.056;3.732;2024-01-30T01:15:13;12.30;99.90
21019;DHT22;10667;51.056;3.732;2024-01-30T01:17:39;12.20;99.90
21019;DHT22;10667;51.056;3.732;2024-01-30T01:20:07;12.30;99.90
21019;DHT22;10667;51.056;3.732;2024-01-30T01:22:33;12.30;99.90
21019;DHT22;10667;51.056;3.732;2024-01-30T01:25:00;12.30;99.90
21019;DHT22;10667;51.056;3.732;2024-01-30T01:27:26;12.20;99.90
21019;DHT22;10667;51.056;3.732;2024-01-30T01:29:52;12.20;99.90
21019;DHT22;10667;51.056;3.732;2024-01-30T01:32:18;12.20;99.90
21019;DHT22;10667;51.056;3.732;2024-01-30T01:34:44;12.20;99.90
21019;DHT22;10667;51.056;3.732;2024-01-30T01:37:10;12.20;99.90
21019;DHT22;10667;51.056;3.732;2024-01-30T01:39:36;12.30;99.90
21019;DHT22;10667;51.056;3.732;2024-01-30T01:42:01;12.20;99.90
21019;DHT22;10667;51.056;3.732;2024-01-30T01:44:27;12.20;99.90
21019;DHT22;10667;51.056;3.732;2024-01-30T01:46:54;12.30;99.90
21019;DHT22;10667;51.056;3.732;2024-01-30T01:49:27;12.40;99.90
21019;DHT22;10667;51.056;3.732;2024-01-30T01:51:55;12.30;99.90
21019;DHT22;10667;51.056;3.732;2024-01-30T01:54:25;12.20;99.90
21019;DHT22;10667;51.056;3.732;2024-01-30T01:56:52;12.20;99.90
21019;DHT22;10667;51.056;3.732;2024-01-30T01:59:19;12.30;99.90
21019;DHT22;10667;51.056;3.732;2024-01-30T02:01:45;12.30;99.90
21019;DHT22;10667;51.056;3.732;2024-01-30T02:04:15;12.30;99.90
21019;DHT22;10667;51.056;3.732;2024-01-30T02:06:41;12.40;99.90
21019;DHT22;10667;51.056;3.732;2024-01-30T02:09:08;12.40;99.90
21019;DHT22;10667;51.056;3.732;2024-01-30T02:11:34;12.30;99.90
21019;DHT22;10667;51.056;3.732;2024-01-30T02:14:04;12.20;99.90
21019;DHT22;10667;51.056;3.732;2024-01-30T02:16:30;12.20;99.90
21019;DHT22;10667;51.056;3.732;2024-01-30T02:18:55;12.30;99.90
21019;DHT22;10667;51.056;3.732;2024-01-30T02:21:21;12.30;99.90
21019;DHT22;10667;51.056;3.732;2024-01-30T02:23:47;12.40;99.90
21019;DHT22;10667;51.056;3.732;2024-01-30T02:26:13;12.50;99.90
21019;DHT22;10667;51.056;3.732;2024-01-30T02:28:39;12.30;99.90
21019;DHT22;10667;51.056;3.732;2024-01-30T02:31:05;12.30;99.90
21019;DHT22;10667;51.056;3.732;2024-01-30T02:33:31;12.30;99.90
21019;DHT22;10667;51.056;3.732;2024-01-30T02:35:57;12.30;99.90
21019;DHT22;10667;51.056;3.732;2024-01-30T02:38:23;12.30;99.90
21019;DHT22;10667;51.056;3.732;2024-01-30T02:40:49;12.30;99.90
21019;DHT22;10667;51.056;3.732;2024-01-30T02:43:15;12.30;99.90
21019;DHT22;10667;51.056;3.732;2024-01-30T02:45:41;12.30;99.90
21019;DHT22;10667;51.056;3.732;2024-01-30T02:48:07;12.30;99.90
21019;DHT22;10667;51.056;3.732;2024-01-30T02:50:33;12.40;99.90
21019;DHT22;10667;51.056;3.732;2024-01-30T02:52:58;12.40;99.90
21019;DHT22;10667;51.056;3.732;2024-01-30T02:55:24;12.30;99.90
21019;DHT22;10667;51.056;3.732;2024-01-30T02:57:49;12.40;99.90
21019;DHT22;10667;51.056;3.732;2024-01-30T03:00:15;12.40;99.90
21019;DHT22;10667;51.056;3.732;2024-01-30T03:02:41;12.40;99.90
21019;DHT22;10667;51.056;3.732;2024-01-30T03:05:07;12.50;99.90
21019;DHT22;10667;51.056;3.732;2024-01-30T03:07:33;12.40;99.90
21019;DHT22;10667;51.056;3.732;2024-01-30T03:09:59;12.30;99.90
21019;DHT22;10667;51.056;3.732;2024-01-30T03:12:25;12.30;99.90
21019;DHT22;10667;51.056;3.732;2024-01-30T03:14:50;12.30;99.90
21019;DHT22;10667;51.056;3.732;2024-01-30T03:17:16;12.20;99.90
21019;DHT22;10667;51.056;3.732;2024-01-30T03:19:41;12.20;99.90
21019;DHT22;10667;51.056;3.732;2024-01-30T03:22:07;12.20;99.90
21019;DHT22;10667;51.056;3.732;2024-01-30T03:24:33;12.20;99.90
21019;DHT22;10667;51.056;3.732;2024-01-30T03:26:59;12.10;99.90
21019;DHT22;10667;51.056;3.732;2024-01-30T03:29:25;12.30;99.90
21019;DHT22;10667;51.056;3.732;2024-01-30T03:31:50;12.30;99.90
21019;DHT22;10667;51.056;3.732;2024-01-30T03:34:16;12.30;99.90
21019;DHT22;10667;51.056;3.732;2024-01-30T03:36:42;12.30;99.90
21019;DHT22;10667;51.056;3.732;2024-01-30T03:39:07;12.30;99.90
21019;DHT22;10667;51.056;3.732;2024-01-30T03:41:33;12.20;99.90
21019;DHT22;10667;51.056;3.732;2024-01-30T03:43:59;12.30;99.90
21019;DHT22;10667;51.056;3.732;2024-01-30T03:46:25;12.30;99.90
21019;DHT22;10667;51.056;3.732;2024-01-30T03:48:50;12.40;99.90
21019;DHT22;10667;51.056;3.732;2024-01-30T03:51:16;12.40;99.90
21019;DHT22;10667;51.056;3.732;2024-01-30T03:53:42;12.30;99.90
21019;DHT22;10667;51.056;3.732;2024-01-30T03:56:08;12.30;99.90
21019;DHT22;10667;51.056;3.732;2024-01-30T03:58:34;12.30;99.90
21019;DHT22;10667;51.056;3.732;2024-01-30T04:01:00;12.30;99.90
21019;DHT22;10667;51.056;3.732;2024-01-30T04:03:26;12.30;99.90
21019;DHT22;10667;51.056;3.732;2024-01-30T04:05:52;12.30;99.90
21019;DHT22;10667;51.056;3.732;2024-01-30T04:08:18;12.30;99.90
21019;DHT22;10667;51.056;3.732;2024-01-30T04:10:44;12.20;99.90
21019;DHT22;10667;51.056;3.732;2024-01-30T04:13:10;12.20;99.90
21019;DHT22;10667;51.056;3.732;2024-01-30T04:15:35;12.20;99.90
21019;DHT22;10667;51.056;3.732;2024-01-30T04:18:01;12.10;99.90
21019;DHT22;10667;51.056;3.732;2024-01-30T04:20:27;12.10;99.90
21019;DHT22;10667;51.056;3.732;2024-01-30T04:22:52;12.10;99.90
21019;DHT22;10667;51.056;3.732;2024-01-30T04:25:18;12.20;99.90
21019;DHT22;10667;51.056;3.732;2024-01-30T04:27:44;12.00;99.90
21019;DHT22;10667;51.056;3.732;2024-01-30T04:30:10;12.00;99.90
21019;DHT22;10667;51.056;3.732;2024-01-30T04:32:36;12.10;99.90
21019;DHT22;10667;51.056;3.732;2024-01-30T04:35:02;12.10;99.90
21019;DHT22;10667;51.056;3.732;2024-01-30T04:37:28;12.20;99.90
21019;DHT22;10667;51.056;3.732;2024-01-30T04:39:53;12.20;99.90
21019;DHT22;10667;51.056;3.732;2024-01-30T04:42:19;12.10;99.90
21019;DHT22;10667;51.056;3.732;2024-01-30T04:44:45;12.00;99.90
21019;DHT22;10667;51.056;3.732;2024-01-30T04:47:10;12.00;99.90
21019;DHT22;10667;51.056;3.732;2024-01-30T04:49:39;12.00;99.90
21019;DHT22;10667;51.056;3.732;2024-01-30T04:52:09;12.20;99.90
21019;DHT22;10667;51.056;3.732;2024-01-30T04:54:35;12.10;99.90
21019;DHT22;10667;51.056;3.732;2024-01-30T04:57:01;12.10;99.90
21019;DHT22;10667;51.056;3.732;2024-01-30T04:59:27;12.10;99.90
21019;DHT22;10667;51.056;3.732;2024-01-30T05:01:53;12.00;99.90
21019;DHT22;10667;51.056;3.732;2024-01-30T05:04:18;12.00;99.90
21019;DHT22;10667;51.056;3.732;2024-01-30T05:06:44;11.90;99.90
21019;DHT22;10667;51.056;3.732;2024-01-30T05:09:10;12.00;99.90
21019;DHT22;10667;51.056;3.732;2024-01-30T05:11:37;12.00;99.90
21019;DHT22;10667;51.056;3.732;2024-01-30T05:14:04;12.10;99.90
21019;DHT22;10667;51.056;3.732;2024-01-30T05:16:29;12.10;99.90
21019;DHT22;10667;51.056;3.732;2024-01-30T05:18:55;12.20;99.90
21019;DHT22;10667;51.056;3.732;2024-01-30T05:21:20;12.10;99.90
21019;DHT22;10667;51.056;3.732;2024-01-30T05:23:46;12.00;99.90
21019;DHT22;10667;51.056;3.732;2024-01-30T05:26:11;12.00;99.90
21019;DHT22;10667;51.056;3.732;2024-01-30T05:28:37;12.00;99.90
21019;DHT22;10667;51.056;3.732;2024-01-30T05:31:03;12.10;99.90
21019;DHT22;10667;51.056;3.732;2024-01-30T05:33:29;12.10;99.90
21019;DHT22;10667;51.056;3.732;2024-01-30T05:35:54;12.00;99.90
21019;DHT22;10667;51.056;3.732;2024-01-30T05:38:20;12.10;99.90
21019;DHT22;10667;51.056;3.732;2024-01-30T05:40:46;12.10;99.90
21019;DHT22;10667;51.056;3.732;2024-01-30T05:43:12;12.20;99.90
21019;DHT22;10667;51.056;3.732;2024-01-30T05:45:37;12.30;99.90
21019;DHT22;10667;51.056;3.732;2024-01-30T05:48:03;12.20;99.90
21019;DHT22;10667;51.056;3.732;2024-01-30T05:50:29;12.10;99.90
21019;DHT22;10667;51.056;3.732;2024-01-30T05:52:55;12.10;99.90
21019;DHT22;10667;51.056;3.732;2024-01-30T05:55:21;12.20;99.90
21019;DHT22;10667;51.056;3.732;2024-01-30T05:57:46;12.30;99.90
21019;DHT22;10667;51.056;3.732;2024-01-30T06:00:12;12.30;99.90
21019;DHT22;10667;51.056;3.732;2024-01-30T06:02:38;12.20;99.90
21019;DHT22;10667;51.056;3.732;2024-01-30T06:05:04;12.30;99.90
21019;DHT22;10667;51.056;3.732;2024-01-30T06:07:30;12.30;99.90
21019;DHT22;10667;51.056;3.732;2024-01-30T06:09:55;12.30;99.90
21019;DHT22;10667;51.056;3.732;2024-01-30T06:12:21;12.20;99.90
21019;DHT22;10667;51.056;3.732;2024-01-30T06:14:47;12.30;99.90
21019;DHT22;10667;51.056;3.732;2024-01-30T06:17:12;12.30;99.90
21019;DHT22;10667;51.056;3.732;2024-01-30T06:19:39;12.20;99.90
21019;DHT22;10667;51.056;3.732;2024-01-30T06:22:05;12.10;99.90
21019;DHT22;10667;51.056;3.732;2024-01-30T06:24:30;12.10;99.90
21019;DHT22;10667;51.056;3.732;2024-01-30T06:26:56;12.10;99.90
21019;DHT22;10667;51.056;3.732;2024-01-30T06:29:22;12.20;99.90
21019;DHT22;10667;51.056;3.732;2024-01-30T06:31:50;12.20;99.90
21019;DHT22;10667;51.056;3.732;2024-01-30T06:34:16;12.20;99.90
21019;DHT22;10667;51.056;3.732;2024-01-30T06:36:41;12.20;99.90
21019;DHT22;10667;51.056;3.732;2024-01-30T06:39:07;12.30;99.90
21019;DHT22;10667;51.056;3.732;2024-01-30T06:41:33;12.40;99.90
21019;DHT22;10667;51.056;3.732;2024-01-30T06:43:59;12.50;99.90
21019;DHT22;10667;51.056;3.732;2024-01-30T06:46:24;12.40;99.90
21019;DHT22;10667;51.056;3.732;2024-01-30T06:48:50;12.40;99.90
21019;DHT22;10667;51.056;3.732;2024-01-30T06:51:15;12.50;99.90
21019;DHT22;10667;51.056;3.732;2024-01-30T06:53:41;12.40;99.90
21019;DHT22;10667;51.056;3.732;2024-01-30T06:56:07;12.40;99.90
21019;DHT22;10667;51.056;3.732;2024-01-30T06:58:33;12.40;99.90
21019;DHT22;10667;51.056;3.732;2024-01-30T07:00:58;12.20;99.90
21019;DHT22;10667;51.056;3.732;2024-01-30T07:03:24;12.20;99.90
21019;DHT22;10667;51.056;3.732;2024-01-30T07:05:50;12.20;99.90
21019;DHT22;10667;51.056;3.732;2024-01-30T07:08:16;12.30;99.90
21019;DHT22;10667;51.056;3.732;2024-01-30T07:10:43;12.40;99.90
21019;DHT22;10667;51.056;3.732;2024-01-30T07:13:10;12.40;99.90
21019;DHT22;10667;51.056;3.732;2024-01-30T07:15:35;12.40;99.90
21019;DHT22;10667;51.056;3.732;2024-01-30T07:18:02;12.40;99.90
21019;DHT22;10667;51.056;3.732;2024-01-30T07:20:28;12.30;99.90
21019;DHT22;10667;51.056;3.732;2024-01-30T07:22:55;12.40;99.90
21019;DHT22;10667;51.056;3.732;2024-01-30T07:25:21;12.50;99.90
21019;DHT22;10667;51.056;3.732;2024-01-30T07:27:47;12.60;99.90
21019;DHT22;10667;51.056;3.732;2024-01-30T07:30:12;12.60;99.90
21019;DHT22;10667;51.056;3.732;2024-01-30T07:32:38;12.70;99.90
21019;DHT22;10667;51.056;3.732;2024-01-30T07:35:04;12.50;99.90
21019;DHT22;10667;51.056;3.732;2024-01-30T07:37:30;12.60;99.90
21019;DHT22;10667;51.056;3.732;2024-01-30T07:39:55;12.50;99.90
21019;DHT22;10667;51.056;3.732;2024-01-30T07:42:21;12.50;99.90
21019;DHT22;10667;51.056;3.732;2024-01-30T07:44:47;12.50;99.90
21019;DHT22;10667;51.056;3.732;2024-01-30T07:47:12;12.60;99.90
21019;DHT22;10667;51.056;3.732;2024-01-30T07:49:41;12.60;99.90
21019;DHT22;10667;51.056;3.732;2024-01-30T07:52:06;12.60;99.90
21019;DHT22;10667;51.056;3.732;2024-01-30T07:54:32;12.60;99.90
21019;DHT22;10667;51.056;3.732;2024-01-30T07:57:13;12.70;99.90
21019;DHT22;10667;51.056;3.732;2024-01-30T07:59:39;12.70;99.90
21019;DHT22;10667;51.056;3.732;2024-01-30T08:02:07;12.70;99.90
21019;DHT22;10667;51.056;3.732;2024-01-30T08:04:33;12.70;99.90
21019;DHT22;10667;51.056;3.732;2024-01-30T08:06:59;12.70;99.90
21019;DHT22;10667;51.056;3.732;2024-01-30T08:09:24;12.60;99.90
21019;DHT22;10667;51.056;3.732;2024-01-30T08:11:50;12.50;99.90
21019;DHT22;10667;51.056;3.732;2024-01-30T08:14:15;12.60;99.90
21019;DHT22;10667;51.056;3.732;2024-01-30T08:16:41;12.60;99.90
21019;DHT22;10667;51.056;3.732;2024-01-30T08:19:07;12.60;99.90
21019;DHT22;10667;51.056;3.732;2024-01-30T08:21:32;12.60;99.90
21019;DHT22;10667;51.056;3.732;2024-01-30T08:24:03;12.60;99.90
21019;DHT22;10667;51.056;3.732;2024-01-30T08:26:29;12.70;99.90
21019;DHT22;10667;51.056;3.732;2024-01-30T08:28:54;12.80;99.90
21019;DHT22;10667;51.056;3.732;2024-01-30T08:31:20;12.80;99.90
21019;DHT22;10667;51.056;3.732;2024-01-30T08:33:46;12.90;99.90
21019;DHT22;10667;51.056;3.732;2024-01-30T08:36:11;12.90;99.90
21019;DHT22;10667;51.056;3.732;2024-01-30T08:38:37;12.90;99.90
21019;DHT22;10667;51.056;3.732;2024-01-30T08:41:02;12.80;99.90
21019;DHT22;10667;51.056;3.732;2024-01-30T08:43:28;12.70;99.90
21019;DHT22;10667;51.056;3.732;2024-01-30T08:45:54;12.60;99.90
21019;DHT22;10667;51.056;3.732;2024-01-30T08:48:20;12.70;99.90
21019;DHT22;10667;51.056;3.732;2024-01-30T08:50:46;12.80;99.90
21019;DHT22;10667;51.056;3.732;2024-01-30T08:53:12;12.80;99.90
21019;DHT22;10667;51.056;3.732;2024-01-30T08:55:38;12.80;99.90
21019;DHT22;10667;51.056;3.732;2024-01-30T08:58:04;12.80;99.90
21019;DHT22;10667;51.056;3.732;2024-01-30T09:00:30;12.80;99.90
21019;DHT22;10667;51.056;3.732;2024-01-30T09:02:56;12.70;99.90
21019;DHT22;10667;51.056;3.732;2024-01-30T09:05:21;12.60;99.90
21019;DHT22;10667;51.056;3.732;2024-01-30T09:07:47;12.70;99.90
21019;DHT22;10667;51.056;3.732;2024-01-30T09:10:13;12.70;99.90
21019;DHT22;10667;51.056;3.732;2024-01-30T09:12:38;12.70;99.90
21019;DHT22;10667;51.056;3.732;2024-01-30T09:15:04;12.70;99.90
21019;DHT22;10667;51.056;3.732;2024-01-30T09:17:30;12.70;99.90
21019;DHT22;10667;51.056;3.732;2024-01-30T09:19:56;12.70;99.90
21019;DHT22;10667;51.056;3.732;2024-01-30T09:22:21;12.60;99.90
21019;DHT22;10667;51.056;3.732;2024-01-30T09:24:47;12.70;99.90
21019;DHT22;10667;51.056;3.732;2024-01-30T09:27:12;12.70;99.90
21019;DHT22;10667;51.056;3.732;2024-01-30T09:29:38;12.60;99.90
21019;DHT22;10667;51.056;3.732;2024-01-30T09:32:05;12.60;99.90
21019;DHT22;10667;51.056;3.732;2024-01-30T09:34:32;12.50;99.90
21019;DHT22;10667;51.056;3.732;2024-01-30T09:36:59;12.60;99.90
21019;DHT22;10667;51.056;3.732;2024-01-30T09:39:25;12.50;99.90
21019;DHT22;10667;51.056;3.732;2024-01-30T09:42:20;12.50;99.90
21019;DHT22;10667;51.056;3.732;2024-01-30T09:44:51;12.50;99.90
21019;DHT22;10667;51.056;3.732;2024-01-30T09:47:18;12.60;99.90
21019;DHT22;10667;51.056;3.732;2024-01-30T09:49:44;12.60;99.90
21019;DHT22;10667;51.056;3.732;2024-01-30T09:52:11;12.50;99.90
21019;DHT22;10667;51.056;3.732;2024-01-30T09:54:38;12.40;99.90
21019;DHT22;10667;51.056;3.732;2024-01-30T09:57:04;12.20;99.90
21019;DHT22;10667;51.056;3.732;2024-01-30T09:59:30;12.10;99.90
21019;DHT22;10667;51.056;3.732;2024-01-30T10:01:56;12.10;99.90
21019;DHT22;10667;51.056;3.732;2024-01-30T10:04:22;12.10;99.90
21019;DHT22;10667;51.056;3.732;2024-01-30T10:06:47;12.00;99.90
21019;DHT22;10667;51.056;3.732;2024-01-30T10:09:13;12.00;99.90
21019;DHT22;10667;51.056;3.732;2024-01-30T10:11:39;12.00;99.90
21019;DHT22;10667;51.056;3.732;2024-01-30T10:14:05;12.00;99.90
21019;DHT22;10667;51.056;3.732;2024-01-30T10:16:30;12.00;99.90
21019;DHT22;10667;51.056;3.732;2024-01-30T10:18:56;12.10;99.90
21019;DHT22;10667;51.056;3.732;2024-01-30T10:21:22;12.10;99.90
21019;DHT22;10667;51.056;3.732;2024-01-30T10:23:47;12.00;99.90
21019;DHT22;10667;51.056;3.732;2024-01-30T10:26:16;11.90;99.90
21019;DHT22;10667;51.056;3.732;2024-01-30T10:28:42;11.80;99.90
21019;DHT22;10667;51.056;3.732;2024-01-30T10:31:08;11.90;99.90
21019;DHT22;10667;51.056;3.732;2024-01-30T10:33:34;11.90;99.90
21019;DHT22;10667;51.056;3.732;2024-01-30T10:36:04;12.00;99.90
21019;DHT22;10667;51.056;3.732;2024-01-30T10:38:32;12.10;99.90
21019;DHT22;10667;51.056;3.732;2024-01-30T10:41:01;11.90;99.90
21019;DHT22;10667;51.056;3.732;2024-01-30T10:43:40;11.90;99.90
21019;DHT22;10667;51.056;3.732;2024-01-30T10:46:20;11.90;99.90
21019;DHT22;10667;51.056;3.732;2024-01-30T10:48:55;12.10;99.90
21019;DHT22;10667;51.056;3.732;2024-01-30T10:51:24;12.10;99.90
21019;DHT22;10667;51.056;3.732;2024-01-30T10:53:50;12.20;99.90
21019;DHT22;10667;51.056;3.732;2024-01-30T10:56:16;12.30;99.90
21019;DHT22;10667;51.056;3.732;2024-01-30T10:58:42;12.40;99.90
21019;DHT22;10667;51.056;3.732;2024-01-30T11:01:09;12.60;99.90
21019;DHT22;10667;51.056;3.732;2024-01-30T11:03:35;12.60;99.90
21019;DHT22;10667;51.056;3.732;2024-01-30T11:06:02;12.40;99.90
21019;DHT22;10667;51.056;3.732;2024-01-30T11:08:28;12.40;99.90
21019;DHT22;10667;51.056;3.732;2024-01-30T11:10:58;12.40;99.90
21019;DHT22;10667;51.056;3.732;2024-01-30T11:13:31;12.30;99.90
21019;DHT22;10667;51.056;3.732;2024-01-30T11:16:04;12.40;99.90
21019;DHT22;10667;51.056;3.732;2024-01-30T11:18:31;12.40;99.90
21019;DHT22;10667;51.056;3.732;2024-01-30T11:20:57;12.40;99.90
21019;DHT22;10667;51.056;3.732;2024-01-30T11:23:23;12.50;99.90
21019;DHT22;10667;51.056;3.732;2024-01-30T11:25:52;12.50;99.90
21019;DHT22;10667;51.056;3.732;2024-01-30T11:28:18;12.40;99.90
21019;DHT22;10667;51.056;3.732;2024-01-30T11:30:45;12.30;99.90
21019;DHT22;10667;51.056;3.732;2024-01-30T11:33:14;12.30;99.90
21019;DHT22;10667;51.056;3.732;2024-01-30T11:35:44;12.20;99.90
21019;DHT22;10667;51.056;3.732;2024-01-30T11:38:14;12.10;99.90
21019;DHT22;10667;51.056;3.732;2024-01-30T11:40:40;12.10;99.90
21019;DHT22;10667;51.056;3.732;2024-01-30T11:43:07;12.10;99.90
21019;DHT22;10667;51.056;3.732;2024-01-30T11:45:34;12.10;99.90
21019;DHT22;10667;51.056;3.732;2024-01-30T11:48:00;12.20;99.90
21019;DHT22;10667;51.056;3.732;2024-01-30T11:50:32;12.20;99.90
21019;DHT22;10667;51.056;3.732;2024-01-30T11:52:59;12.20;99.90
21019;DHT22;10667;51.056;3.732;2024-01-30T11:55:25;12.10;99.90
21019;DHT22;10667;51.056;3.732;2024-01-30T11:57:51;12.10;99.90
21019;DHT22;10667;51.056;3.732;2024-01-30T12:00:20;12.10;99.90
21019;DHT22;10667;51.056;3.732;2024-01-30T12:02:53;12.00;99.90
21019;DHT22;10667;51.056;3.732;2024-01-30T12:05:24;11.90;99.90
21019;DHT22;10667;51.056;3.732;2024-01-30T12:07:50;11.80;99.90
21019;DHT22;10667;51.056;3.732;2024-01-30T12:10:17;11.80;99.90
21019;DHT22;10667;51.056;3.732;2024-01-30T12:12:49;11.90;99.90
21019;DHT22;10667;51.056;3.732;2024-01-30T12:15:15;11.90;99.90
21019;DHT22;10667;51.056;3.732;2024-01-30T12:17:41;11.80;99.90
21019;DHT22;10667;51.056;3.732;2024-01-30T12:22:44;11.60;99.90
21019;DHT22;10667;51.056;3.732;2024-01-30T12:25:14;11.60;99.90
21019;DHT22;10667;51.056;3.732;2024-01-30T12:27:42;11.50;99.90
21019;DHT22;10667;51.056;3.732;2024-01-30T12:30:10;11.40;99.90
21019;DHT22;10667;51.056;3.732;2024-01-30T12:32:36;11.50;99.90
21019;DHT22;10667;51.056;3.732;2024-01-30T12:35:02;11.40;99.90
21019;DHT22;10667;51.056;3.732;2024-01-30T12:37:30;11.30;99.90
21019;DHT22;10667;51.056;3.732;2024-01-30T12:39:56;11.20;99.90
21019;DHT22;10667;51.056;3.732;2024-01-30T12:42:22;11.10;99.90
21019;DHT22;10667;51.056;3.732;2024-01-30T12:44:48;11.20;99.90
21019;DHT22;10667;51.056;3.732;2024-01-30T12:47:14;11.10;99.90
21019;DHT22;10667;51.056;3.732;2024-01-30T12:49:43;11.10;99.90
21019;DHT22;10667;51.056;3.732;2024-01-30T12:52:10;10.90;99.90
21019;DHT22;10667;51.056;3.732;2024-01-30T12:54:36;10.90;99.90
21019;DHT22;10667;51.056;3.732;2024-01-30T12:57:02;10.80;99.90
21019;DHT22;10667;51.056;3.732;2024-01-30T12:59:27;10.80;99.90
21019;DHT22;10667;51.056;3.732;2024-01-30T13:01:53;10.90;99.90
21019;DHT22;10667;51.056;3.732;2024-01-30T13:04:19;11.10;99.90
21019;DHT22;10667;51.056;3.732;2024-01-30T13:06:44;11.10;99.90
21019;DHT22;10667;51.056;3.732;2024-01-30T13:09:10;11.20;99.90
21019;DHT22;10667;51.056;3.732;2024-01-30T13:11:36;11.20;99.90
21019;DHT22;10667;51.056;3.732;2024-01-30T13:14:01;11.20;99.90
21019;DHT22;10667;51.056;3.732;2024-01-30T13:16:27;11.10;99.90
21019;DHT22;10667;51.056;3.732;2024-01-30T13:18:53;11.10;99.90
21019;DHT22;10667;51.056;3.732;2024-01-30T13:21:21;10.90;99.90
21019;DHT22;10667;51.056;3.732;2024-01-30T13:23:46;10.90;99.90
21019;DHT22;10667;51.056;3.732;2024-01-30T13:26:12;10.90;99.90
21019;DHT22;10667;51.056;3.732;2024-01-30T13:28:38;10.90;99.90
21019;DHT22;10667;51.056;3.732;2024-01-30T13:31:04;10.90;99.90
21019;DHT22;10667;51.056;3.732;2024-01-30T13:33:30;11.00;99.90
21019;DHT22;10667;51.056;3.732;2024-01-30T13:35:56;11.10;99.90
21019;DHT22;10667;51.056;3.732;2024-01-30T13:38:22;11.10;99.90
21019;DHT22;10667;51.056;3.732;2024-01-30T13:40:47;11.10;99.90
21019;DHT22;10667;51.056;3.732;2024-01-30T13:43:13;10.80;99.90
21019;DHT22;10667;51.056;3.732;2024-01-30T13:45:38;10.90;99.90
21019;DHT22;10667;51.056;3.732;2024-01-30T13:48:04;10.90;99.90
21019;DHT22;10667;51.056;3.732;2024-01-30T13:50:30;10.90;99.90
21019;DHT22;10667;51.056;3.732;2024-01-30T13:52:56;11.00;99.90
21019;DHT22;10667;51.056;3.732;2024-01-30T13:55:21;10.90;99.90
21019;DHT22;10667;51.056;3.732;2024-01-30T13:57:47;11.00;99.90
21019;DHT22;10667;51.056;3.732;2024-01-30T14:00:13;11.00;99.90
21019;DHT22;10667;51.056;3.732;2024-01-30T14:02:42;11.10;99.90
21019;DHT22;10667;51.056;3.732;2024-01-30T14:05:08;11.00;99.90
21019;DHT22;10667;51.056;3.732;2024-01-30T14:07:35;10.90;99.90
21019;DHT22;10667;51.056;3.732;2024-01-30T14:10:01;10.90;99.90
21019;DHT22;10667;51.056;3.732;2024-01-30T14:12:26;11.00;99.90
21019;DHT22;10667;51.056;3.732;2024-01-30T14:14:52;11.00;99.90
21019;DHT22;10667;51.056;3.732;2024-01-30T14:17:18;10.90;99.90
21019;DHT22;10667;51.056;3.732;2024-01-30T14:19:43;10.80;99.90
21019;DHT22;10667;51.056;3.732;2024-01-30T14:22:09;10.80;99.90
21019;DHT22;10667;51.056;3.732;2024-01-30T14:24:34;10.80;99.90
21019;DHT22;10667;51.056;3.732;2024-01-30T14:27:00;10.80;99.90
21019;DHT22;10667;51.056;3.732;2024-01-30T14:29:26;10.80;99.90
21019;DHT22;10667;51.056;3.732;2024-01-30T14:31:52;10.80;99.90
21019;DHT22;10667;51.056;3.732;2024-01-30T14:34:17;10.60;99.90
21019;DHT22;10667;51.056;3.732;2024-01-30T14:36:43;10.60;99.90
21019;DHT22;10667;51.056;3.732;2024-01-30T14:39:09;10.70;99.90
21019;DHT22;10667;51.056;3.732;2024-01-30T14:41:35;10.60;99.90
21019;DHT22;10667;51.056;3.732;2024-01-30T14:44:00;10.60;99.90
21019;DHT22;10667;51.056;3.732;2024-01-30T14:46:26;10.30;99.90
21019;DHT22;10667;51.056;3.732;2024-01-30T14:48:52;10.20;99.90
21019;DHT22;10667;51.056;3.732;2024-01-30T14:51:18;10.30;99.90
21019;DHT22;10667;51.056;3.732;2024-01-30T14:53:43;10.40;99.90
21019;DHT22;10667;51.056;3.732;2024-01-30T14:56:10;10.50;99.90
21019;DHT22;10667;51.056;3.732;2024-01-30T14:58:36;10.40;99.90
21019;DHT22;10667;51.056;3.732;2024-01-30T15:01:02;10.40;99.90
21019;DHT22;10667;51.056;3.732;2024-01-30T15:03:28;10.40;99.90
21019;DHT22;10667;51.056;3.732;2024-01-30T15:05:54;10.50;99.90
21019;DHT22;10667;51.056;3.732;2024-01-30T15:08:21;10.30;99.90
21019;DHT22;10667;51.056;3.732;2024-01-30T15:10:47;10.20;99.90
21019;DHT22;10667;51.056;3.732;2024-01-30T15:13:12;10.20;99.90
21019;DHT22;10667;51.056;3.732;2024-01-30T15:15:38;10.20;99.90
21019;DHT22;10667;51.056;3.732;2024-01-30T15:18:04;10.20;99.90
21019;DHT22;10667;51.056;3.732;2024-01-30T15:20:30;10.00;99.90
21019;DHT22;10667;51.056;3.732;2024-01-30T15:22:57;10.20;99.90
21019;DHT22;10667;51.056;3.732;2024-01-30T15:25:22;10.20;99.90
21019;DHT22;10667;51.056;3.732;2024-01-30T15:27:48;10.30;99.90